sensor_id;sensor_type;location;lat;lon;timestamp;temperature;humidity
13496;DHT22;6820;49.374;8.452;2023-11-19T00:03:18;9.50;99.99
13496;DHT22;6820;49.374;8.452;2023-11-19T00:07:20;9.52;99.99
13496;DHT22;6820;49.374;8.452;2023-11-19T00:11:24;9.53;99.99
13496;DHT22;6820;49.374;8.452;2023-11-19T00:15:26;9.52;99.99
13496;DHT22;6820;49.374;8.452;2023-11-19T00:19:28;9.50;99.99
13496;DHT22;6820;49.374;8.452;2023-11-19T00:23:30;9.50;99.99
13496;DHT22;6820;49.374;8.452;2023-11-19T00:27:31;9.50;99.99
13496;DHT22;6820;49.374;8.452;2023-11-19T00:31:33;9.50;99.99
13496;DHT22;6820;49.374;8.452;2023-11-19T00:35:35;9.52;99.99
13496;DHT22;6820;49.374;8.452;2023-11-19T00:39:37;9.52;99.99
13496;DHT22;6820;49.374;8.452;2023-11-19T00:43:38;9.52;99.99
13496;DHT22;6820;49.374;8.452;2023-11-19T00:47:40;9.50;99.99
13496;DHT22;6820;49.374;8.452;2023-11-19T00:51:43;9.52;99.99
13496;DHT22;6820;49.374;8.452;2023-11-19T00:55:44;9.52;99.99
13496;DHT22;6820;49.374;8.452;2023-11-19T00:59:48;9.53;99.99
13496;DHT22;6820;49.374;8.452;2023-11-19T01:03:49;9.53;99.99
13496;DHT22;6820;49.374;8.452;2023-11-19T01:07:51;9.53;99.99
13496;DHT22;6820;49.374;8.452;2023-11-19T01:11:56;9.55;99.99
13496;DHT22;6820;49.374;8.452;2023-11-19T01:15:58;9.56;99.99
13496;DHT22;6820;49.374;8.452;2023-11-19T01:20:00;9.55;99.99
13496;DHT22;6820;49.374;8.452;2023-11-19T01:24:01;9.56;99.99
13496;DHT22;6820;49.374;8.452;2023-11-19T01:28:05;9.58;99.99
13496;DHT22;6820;49.374;8.452;2023-11-19T01:32:07;9.60;99.99
13496;DHT22;6820;49.374;8.452;2023-11-19T01:36:09;9.60;99.99
13496;DHT22;6820;49.374;8.452;2023-11-19T01:40:11;9.63;99.99
13496;DHT22;6820;49.374;8.452;2023-11-19T01:44:13;9.65;99.99
13496;DHT22;6820;49.374;8.452;2023-11-19T01:48:19;9.67;99.99
13496;DHT22;6820;49.374;8.452;2023-11-19T01:52:20;9.68;99.99
13496;DHT22;6820;49.374;8.452;2023-11-19T01:56:22;9.68;99.99
13496;DHT22;6820;49.374;8.452;2023-11-19T02:00:26;9.71;99.99
13496;DHT22;6820;49.374;8.452;2023-11-19T02:04:28;9.73;99.99
13496;DHT22;6820;49.374;8.452;2023-11-19T02:08:30;9.74;99.99
13496;DHT22;6820;49.374;8.452;2023-11-19T02:12:32;9.75;99.99
13496;DHT22;6820;49.374;8.452;2023-11-19T02:16:37;9.80;99.99
13496;DHT22;6820;49.374;8.452;2023-11-19T02:20:38;9.81;99.99
13496;DHT22;6820;49.374;8.452;2023-11-19T02:24:41;9.83;99.99
13496;DHT22;6820;49.374;8.452;2023-11-19T02:28:43;9.86;99.99
13496;DHT22;6820;49.374;8.452;2023-11-19T02:32:45;9.88;99.99
13496;DHT22;6820;49.374;8.452;2023-11-19T02:36:47;9.88;99.99
13496;DHT22;6820;49.374;8.452;2023-11-19T02:40:50;9.91;99.99
13496;DHT22;6820;49.374;8.452;2023-11-19T02:44:52;9.93;99.99
13496;DHT22;6820;49.374;8.452;2023-11-19T02:48:55;9.95;99.99
13496;DHT22;6820;49.374;8.452;2023-11-19T02:52:57;9.96;99.99
13496;DHT22;6820;49.374;8.452;2023-11-19T02:56:59;9.99;99.99
13496;DHT22;6820;49.374;8.452;2023-11-19T03:01:03;10.02;99.99
13496;DHT22;6820;49.374;8.452;2023-11-19T03:05:20;10.06;99.99
13496;DHT22;6820;49.374;8.452;2023-11-19T03:09:23;10.09;99.99
13496;DHT22;6820;49.374;8.452;2023-11-19T03:13:25;10.10;99.99
13496;DHT22;6820;49.374;8.452;2023-11-19T03:17:28;10.14;99.99
13496;DHT22;6820;49.374;8.452;2023-11-19T03:21:29;10.16;99.99
13496;DHT22;6820;49.374;8.452;2023-11-19T03:25:32;10.17;99.99
13496;DHT22;6820;49.374;8.452;2023-11-19T03:29:38;10.18;99.99
13496;DHT22;6820;49.374;8.452;2023-11-19T03:33:40;10.24;99.99
13496;DHT22;6820;49.374;8.452;2023-11-19T03:37:41;10.25;99.99
13496;DHT22;6820;49.374;8.452;2023-11-19T03:41:47;10.28;99.99
13496;DHT22;6820;49.374;8.452;2023-11-19T03:45:48;10.31;99.99
13496;DHT22;6820;49.374;8.452;2023-11-19T03:49:51;10.32;99.99
13496;DHT22;6820;49.374;8.452;2023-11-19T03:53:53;10.35;99.99
13496;DHT22;6820;49.374;8.452;2023-11-19T03:57:55;10.35;99.99
13496;DHT22;6820;49.374;8.452;2023-11-19T04:01:57;10.39;99.99
13496;DHT22;6820;49.374;8.452;2023-11-19T04:06:02;10.43;99.99
13496;DHT22;6820;49.374;8.452;2023-11-19T04:10:04;10.44;99.99
13496;DHT22;6820;49.374;8.452;2023-11-19T04:14:09;10.47;99.99
13496;DHT22;6820;49.374;8.452;2023-11-19T04:18:11;10.51;99.99
13496;DHT22;6820;49.374;8.452;2023-11-19T04:22:13;10.55;99.99
13496;DHT22;6820;49.374;8.452;2023-11-19T04:26:15;10.55;99.99
13496;DHT22;6820;49.374;8.452;2023-11-19T04:30:17;10.60;99.99
13496;DHT22;6820;49.374;8.452;2023-11-19T04:34:19;10.62;99.99
13496;DHT22;6820;49.374;8.452;2023-11-19T04:38:21;10.66;99.99
13496;DHT22;6820;49.374;8.452;2023-11-19T04:42:25;10.70;99.99
13496;DHT22;6820;49.374;8.452;2023-11-19T04:46:27;10.72;99.99
13496;DHT22;6820;49.374;8.452;2023-11-19T04:50:29;10.73;99.99
13496;DHT22;6820;49.374;8.452;2023-11-19T04:54:30;10.73;99.99
13496;DHT22;6820;49.374;8.452;2023-11-19T04:58:32;10.76;99.99
13496;DHT22;6820;49.374;8.452;2023-11-19T05:02:35;10.81;99.99
13496;DHT22;6820;49.374;8.452;2023-11-19T05:06:37;10.84;99.99
13496;DHT22;6820;49.374;8.452;2023-11-19T05:10:39;10.83;99.99
13496;DHT22;6820;49.374;8.452;2023-11-19T05:14:41;10.86;99.99
13496;DHT22;6820;49.374;8.452;2023-11-19T05:18:50;10.88;99.99
13496;DHT22;6820;49.374;8.452;2023-11-19T05:22:52;10.93;99.99
13496;DHT22;6820;49.374;8.452;2023-11-19T05:26:54;10.99;99.99
13496;DHT22;6820;49.374;8.452;2023-11-19T05:30:56;11.02;99.99
13496;DHT22;6820;49.374;8.452;2023-11-19T05:34:59;11.06;99.99
13496;DHT22;6820;49.374;8.452;2023-11-19T05:39:01;11.09;99.99
13496;DHT22;6820;49.374;8.452;2023-11-19T05:43:04;11.13;99.99
13496;DHT22;6820;49.374;8.452;2023-11-19T05:47:08;11.13;99.99
13496;DHT22;6820;49.374;8.452;2023-11-19T05:51:09;11.16;99.99
13496;DHT22;6820;49.374;8.452;2023-11-19T05:55:11;11.12;99.99
13496;DHT22;6820;49.374;8.452;2023-11-19T05:59:14;11.20;99.99
13496;DHT22;6820;49.374;8.452;2023-11-19T06:03:18;11.23;99.99
13496;DHT22;6820;49.374;8.452;2023-11-19T06:07:20;11.20;99.99
13496;DHT22;6820;49.374;8.452;2023-11-19T06:11:22;11.23;99.99
13496;DHT22;6820;49.374;8.452;2023-11-19T06:15:23;11.27;99.99
13496;DHT22;6820;49.374;8.452;2023-11-19T06:19:25;11.30;99.99
13496;DHT22;6820;49.374;8.452;2023-11-19T06:23:31;11.33;99.99
13496;DHT22;6820;49.374;8.452;2023-11-19T06:27:32;11.33;99.99
13496;DHT22;6820;49.374;8.452;2023-11-19T06:31:34;11.39;99.99
13496;DHT22;6820;49.374;8.452;2023-11-19T06:35:36;11.44;99.99
13496;DHT22;6820;49.374;8.452;2023-11-19T06:39:38;11.45;99.99
13496;DHT22;6820;49.374;8.452;2023-11-19T06:43:40;11.46;99.99
13496;DHT22;6820;49.374;8.452;2023-11-19T06:47:43;11.46;99.99
13496;DHT22;6820;49.374;8.452;2023-11-19T06:51:44;11.45;99.99
13496;DHT22;6820;49.374;8.452;2023-11-19T06:55:47;11.51;99.99
13496;DHT22;6820;49.374;8.452;2023-11-19T06:59:49;11.53;99.99
13496;DHT22;6820;49.374;8.452;2023-11-19T07:03:51;11.57;99.99
13496;DHT22;6820;49.374;8.452;2023-11-19T07:07:52;11.62;99.99
13496;DHT22;6820;49.374;8.452;2023-11-19T07:11:55;11.62;99.99
13496;DHT22;6820;49.374;8.452;2023-11-19T07:15:57;11.63;99.99
13496;DHT22;6820;49.374;8.452;2023-11-19T07:19:59;11.66;99.99
13496;DHT22;6820;49.374;8.452;2023-11-19T07:24:02;11.70;99.99
13496;DHT22;6820;49.374;8.452;2023-11-19T07:28:05;11.75;99.99
13496;DHT22;6820;49.374;8.452;2023-11-19T07:32:08;11.72;99.99
13496;DHT22;6820;49.374;8.452;2023-11-19T07:36:10;11.74;99.99
13496;DHT22;6820;49.374;8.452;2023-11-19T07:40:12;11.75;99.99
13496;DHT22;6820;49.374;8.452;2023-11-19T07:44:14;11.75;99.99
13496;DHT22;6820;49.374;8.452;2023-11-19T07:48:15;11.77;99.99
13496;DHT22;6820;49.374;8.452;2023-11-19T07:52:17;11.77;99.99
13496;DHT22;6820;49.374;8.452;2023-11-19T07:56:22;11.78;99.99
13496;DHT22;6820;49.374;8.452;2023-11-19T08:00:24;11.78;99.99
13496;DHT22;6820;49.374;8.452;2023-11-19T08:04:26;11.78;99.99
13496;DHT22;6820;49.374;8.452;2023-11-19T08:08:28;11.79;99.99
13496;DHT22;6820;49.374;8.452;2023-11-19T08:12:31;11.84;99.99
13496;DHT22;6820;49.374;8.452;2023-11-19T08:16:32;11.93;99.99
13496;DHT22;6820;49.374;8.452;2023-11-19T08:20:34;11.93;99.99
13496;DHT22;6820;49.374;8.452;2023-11-19T08:24:36;11.98;99.99
13496;DHT22;6820;49.374;8.452;2023-11-19T08:28:37;11.98;99.99
13496;DHT22;6820;49.374;8.452;2023-11-19T08:32:39;11.98;99.99
13496;DHT22;6820;49.374;8.452;2023-11-19T08:36:41;12.01;99.99
13496;DHT22;6820;49.374;8.452;2023-11-19T08:40:42;12.07;99.99
13496;DHT22;6820;49.374;8.452;2023-11-19T08:44:44;12.26;99.99
13496;DHT22;6820;49.374;8.452;2023-11-19T08:48:51;12.38;99.99
13496;DHT22;6820;49.374;8.452;2023-11-19T08:52:53;12.56;99.99
13496;DHT22;6820;49.374;8.452;2023-11-19T08:56:54;12.74;99.99
13496;DHT22;6820;49.374;8.452;2023-11-19T09:00:56;12.79;99.99
13496;DHT22;6820;49.374;8.452;2023-11-19T09:04:59;12.91;99.99
13496;DHT22;6820;49.374;8.452;2023-11-19T09:09:00;12.95;99.99
13496;DHT22;6820;49.374;8.452;2023-11-19T09:13:06;13.09;99.99
13496;DHT22;6820;49.374;8.452;2023-11-19T09:17:10;13.24;99.99
13496;DHT22;6820;49.374;8.452;2023-11-19T09:21:11;13.39;99.99
13496;DHT22;6820;49.374;8.452;2023-11-19T09:25:13;13.50;99.99
13496;DHT22;6820;49.374;8.452;2023-11-19T09:29:18;13.63;99.99
13496;DHT22;6820;49.374;8.452;2023-11-19T09:33:20;13.76;99.99
13496;DHT22;6820;49.374;8.452;2023-11-19T09:37:22;13.90;99.99
13496;DHT22;6820;49.374;8.452;2023-11-19T09:41:24;13.98;99.99
13496;DHT22;6820;49.374;8.452;2023-11-19T09:45:27;13.96;99.99
13496;DHT22;6820;49.374;8.452;2023-11-19T09:49:29;13.93;99.99
13496;DHT22;6820;49.374;8.452;2023-11-19T09:53:34;14.01;99.99
13496;DHT22;6820;49.374;8.452;2023-11-19T09:57:40;14.01;99.99
13496;DHT22;6820;49.374;8.452;2023-11-19T10:01:43;13.99;99.99
13496;DHT22;6820;49.374;8.452;2023-11-19T10:05:45;14.09;99.99
13496;DHT22;6820;49.374;8.452;2023-11-19T10:09:46;14.16;99.99
13496;DHT22;6820;49.374;8.452;2023-11-19T10:13:49;14.16;99.99
13496;DHT22;6820;49.374;8.452;2023-11-19T10:17:51;14.21;99.99
13496;DHT22;6820;49.374;8.452;2023-11-19T10:21:52;14.34;99.99
13496;DHT22;6820;49.374;8.452;2023-11-19T10:25:54;14.57;99.99
13496;DHT22;6820;49.374;8.452;2023-11-19T10:30:06;14.71;99.99
13496;DHT22;6820;49.374;8.452;2023-11-19T10:34:23;14.87;99.99
13496;DHT22;6820;49.374;8.452;2023-11-19T10:38:27;15.05;99.99
13496;DHT22;6820;49.374;8.452;2023-11-19T10:42:29;15.15;99.99
13496;DHT22;6820;49.374;8.452;2023-11-19T10:46:40;15.13;99.99
13496;DHT22;6820;49.374;8.452;2023-11-19T10:50:43;15.01;99.99
13496;DHT22;6820;49.374;8.452;2023-11-19T10:54:48;14.97;99.99
13496;DHT22;6820;49.374;8.452;2023-11-19T10:58:52;14.93;99.99
13496;DHT22;6820;49.374;8.452;2023-11-19T11:02:59;14.80;99.99
13496;DHT22;6820;49.374;8.452;2023-11-19T11:07:03;14.66;99.99
13496;DHT22;6820;49.374;8.452;2023-11-19T11:11:08;14.60;99.99
13496;DHT22;6820;49.374;8.452;2023-11-19T11:15:13;14.53;99.99
13496;DHT22;6820;49.374;8.452;2023-11-19T11:19:17;14.49;99.99
13496;DHT22;6820;49.374;8.452;2023-11-19T11:27:53;14.67;99.99
13496;DHT22;6820;49.374;8.452;2023-11-19T11:36:38;15.07;99.99
13496;DHT22;6820;49.374;8.452;2023-11-19T11:41:15;15.37;99.99
13496;DHT22;6820;49.374;8.452;2023-11-19T11:45:17;15.56;99.99
13496;DHT22;6820;49.374;8.452;2023-11-19T11:49:36;15.74;99.99
13496;DHT22;6820;49.374;8.452;2023-11-19T11:53:39;15.77;99.99
13496;DHT22;6820;49.374;8.452;2023-11-19T11:57:42;15.85;99.99
13496;DHT22;6820;49.374;8.452;2023-11-19T12:01:57;15.92;99.99
13496;DHT22;6820;49.374;8.452;2023-11-19T12:06:00;16.11;99.99
13496;DHT22;6820;49.374;8.452;2023-11-19T12:10:08;16.25;99.99
13496;DHT22;6820;49.374;8.452;2023-11-19T12:14:17;16.25;99.99
13496;DHT22;6820;49.374;8.452;2023-11-19T12:18:28;16.18;99.99
13496;DHT22;6820;49.374;8.452;2023-11-19T12:22:30;16.18;99.99
13496;DHT22;6820;49.374;8.452;2023-11-19T12:26:36;16.22;99.99
13496;DHT22;6820;49.374;8.452;2023-11-19T12:30:39;16.32;99.99
13496;DHT22;6820;49.374;8.452;2023-11-19T12:34:41;16.36;99.99
13496;DHT22;6820;49.374;8.452;2023-11-19T12:38:43;16.40;99.99
13496;DHT22;6820;49.374;8.452;2023-11-19T12:42:50;16.37;99.99
13496;DHT22;6820;49.374;8.452;2023-11-19T12:46:59;16.36;99.99
13496;DHT22;6820;49.374;8.452;2023-11-19T12:51:04;16.30;99.99
13496;DHT22;6820;49.374;8.452;2023-11-19T12:55:25;16.14;99.99
13496;DHT22;6820;49.374;8.452;2023-11-19T12:59:31;16.04;99.99
13496;DHT22;6820;49.374;8.452;2023-11-19T13:03:34;16.01;99.99
13496;DHT22;6820;49.374;8.452;2023-11-19T13:07:37;16.03;99.99
13496;DHT22;6820;49.374;8.452;2023-11-19T13:11:38;16.08;99.99
13496;DHT22;6820;49.374;8.452;2023-11-19T13:15:42;16.16;99.99
13496;DHT22;6820;49.374;8.452;2023-11-19T13:19:47;16.16;99.99
13496;DHT22;6820;49.374;8.452;2023-11-19T13:23:49;16.17;99.99
13496;DHT22;6820;49.374;8.452;2023-11-19T13:27:51;16.17;99.99
13496;DHT22;6820;49.374;8.452;2023-11-19T13:31:53;16.16;99.99
13496;DHT22;6820;49.374;8.452;2023-11-19T13:35:55;16.17;99.99
13496;DHT22;6820;49.374;8.452;2023-11-19T13:39:57;16.07;99.99
13496;DHT22;6820;49.374;8.452;2023-11-19T13:43:59;15.89;99.99
13496;DHT22;6820;49.374;8.452;2023-11-19T13:48:00;15.76;99.99
13496;DHT22;6820;49.374;8.452;2023-11-19T13:52:02;15.66;99.99
13496;DHT22;6820;49.374;8.452;2023-11-19T13:56:06;15.62;99.99
13496;DHT22;6820;49.374;8.452;2023-11-19T14:00:09;15.58;99.99
13496;DHT22;6820;49.374;8.452;2023-11-19T14:04:14;15.51;99.99
13496;DHT22;6820;49.374;8.452;2023-11-19T14:08:16;15.48;99.99
13496;DHT22;6820;49.374;8.452;2023-11-19T14:12:26;15.46;99.99
13496;DHT22;6820;49.374;8.452;2023-11-19T14:16:28;15.49;99.99
13496;DHT22;6820;49.374;8.452;2023-11-19T14:20:29;15.49;99.99
13496;DHT22;6820;49.374;8.452;2023-11-19T14:24:31;15.43;99.99
13496;DHT22;6820;49.374;8.452;2023-11-19T14:28:33;15.41;99.99
13496;DHT22;6820;49.374;8.452;2023-11-19T14:32:35;15.38;99.99
13496;DHT22;6820;49.374;8.452;2023-11-19T14:36:37;15.38;99.99
13496;DHT22;6820;49.374;8.452;2023-11-19T14:40:39;15.37;99.99
13496;DHT22;6820;49.374;8.452;2023-11-19T14:44:43;15.35;99.99
13496;DHT22;6820;49.374;8.452;2023-11-19T14:48:45;15.33;99.99
13496;DHT22;6820;49.374;8.452;2023-11-19T14:52:46;15.28;99.99
13496;DHT22;6820;49.374;8.452;2023-11-19T14:56:48;15.25;99.99
13496;DHT22;6820;49.374;8.452;2023-11-19T15:00:50;15.20;99.99
13496;DHT22;6820;49.374;8.452;2023-11-19T15:04:51;15.27;99.99
13496;DHT22;6820;49.374;8.452;2023-11-19T15:08:53;15.27;99.99
13496;DHT22;6820;49.374;8.452;2023-11-19T15:12:56;15.23;99.99
13496;DHT22;6820;49.374;8.452;2023-11-19T15:16:58;15.25;99.99
13496;DHT22;6820;49.374;8.452;2023-11-19T15:20:59;15.30;99.99
13496;DHT22;6820;49.374;8.452;2023-11-19T15:25:01;15.27;99.99
13496;DHT22;6820;49.374;8.452;2023-11-19T15:29:05;15.22;99.99
13496;DHT22;6820;49.374;8.452;2023-11-19T15:33:07;15.20;99.99
13496;DHT22;6820;49.374;8.452;2023-11-19T15:37:10;15.19;99.99
13496;DHT22;6820;49.374;8.452;2023-11-19T15:41:14;15.12;99.99
13496;DHT22;6820;49.374;8.452;2023-11-19T15:45:16;15.04;99.99
13496;DHT22;6820;49.374;8.452;2023-11-19T15:49:18;14.93;99.99
13496;DHT22;6820;49.374;8.452;2023-11-19T15:53:19;14.80;99.99
13496;DHT22;6820;49.374;8.452;2023-11-19T15:57:22;14.71;99.99
13496;DHT22;6820;49.374;8.452;2023-11-19T16:01:23;14.59;99.99
13496;DHT22;6820;49.374;8.452;2023-11-19T16:05:25;14.46;99.99
13496;DHT22;6820;49.374;8.452;2023-11-19T16:09:27;14.36;99.99
13496;DHT22;6820;49.374;8.452;2023-11-19T16:13:29;14.30;99.99
13496;DHT22;6820;49.374;8.452;2023-11-19T16:17:31;14.23;99.99
13496;DHT22;6820;49.374;8.452;2023-11-19T16:21:35;14.16;99.99
13496;DHT22;6820;49.374;8.452;2023-11-19T16:25:39;14.12;99.99
13496;DHT22;6820;49.374;8.452;2023-11-19T16:29:40;14.11;99.99
13496;DHT22;6820;49.374;8.452;2023-11-19T16:33:42;14.09;99.99
13496;DHT22;6820;49.374;8.452;2023-11-19T16:37:44;14.06;99.99
13496;DHT22;6820;49.374;8.452;2023-11-19T16:41:46;13.99;99.99
13496;DHT22;6820;49.374;8.452;2023-11-19T16:45:47;14.06;99.99
13496;DHT22;6820;49.374;8.452;2023-11-19T16:49:49;14.17;99.99
13496;DHT22;6820;49.374;8.452;2023-11-19T16:53:51;14.24;99.99
13496;DHT22;6820;49.374;8.452;2023-11-19T16:57:53;14.21;99.99
13496;DHT22;6820;49.374;8.452;2023-11-19T17:01:55;14.19;99.99
13496;DHT22;6820;49.374;8.452;2023-11-19T17:05:57;14.13;99.99
13496;DHT22;6820;49.374;8.452;2023-11-19T17:09:59;14.11;99.99
13496;DHT22;6820;49.374;8.452;2023-11-19T17:14:00;14.08;99.99
13496;DHT22;6820;49.374;8.452;2023-11-19T17:18:02;14.05;99.99
13496;DHT22;6820;49.374;8.452;2023-11-19T17:22:06;14.04;99.99
13496;DHT22;6820;49.374;8.452;2023-11-19T17:26:07;14.01;99.99
13496;DHT22;6820;49.374;8.452;2023-11-19T17:30:09;13.94;99.99
13496;DHT22;6820;49.374;8.452;2023-11-19T17:34:12;13.93;99.99
13496;DHT22;6820;49.374;8.452;2023-11-19T17:38:14;13.90;99.99
13496;DHT22;6820;49.374;8.452;2023-11-19T17:42:18;14.06;99.99
13496;DHT22;6820;49.374;8.452;2023-11-19T17:46:20;14.12;99.99
13496;DHT22;6820;49.374;8.452;2023-11-19T17:50:22;14.12;99.99
13496;DHT22;6820;49.374;8.452;2023-11-19T17:54:26;14.09;99.99
13496;DHT22;6820;49.374;8.452;2023-11-19T17:58:27;14.09;99.99
13496;DHT22;6820;49.374;8.452;2023-11-19T18:02:29;14.06;99.99
13496;DHT22;6820;49.374;8.452;2023-11-19T18:06:33;14.05;99.99
13496;DHT22;6820;49.374;8.452;2023-11-19T18:10:38;14.04;99.99
13496;DHT22;6820;49.374;8.452;2023-11-19T18:14:40;14.01;99.99
13496;DHT22;6820;49.374;8.452;2023-11-19T18:18:45;14.01;99.99
13496;DHT22;6820;49.374;8.452;2023-11-19T18:22:47;13.91;99.99
13496;DHT22;6820;49.374;8.452;2023-11-19T18:26:49;13.87;99.99
13496;DHT22;6820;49.374;8.452;2023-11-19T18:30:52;13.81;99.99
13496;DHT22;6820;49.374;8.452;2023-11-19T18:35:07;13.79;99.99
13496;DHT22;6820;49.374;8.452;2023-11-19T18:39:18;13.75;99.99
13496;DHT22;6820;49.374;8.452;2023-11-19T18:43:19;13.71;99.99
13496;DHT22;6820;49.374;8.452;2023-11-19T18:47:21;13.66;99.99
13496;DHT22;6820;49.374;8.452;2023-11-19T18:51:23;13.63;99.99
13496;DHT22;6820;49.374;8.452;2023-11-19T18:55:24;13.61;99.99
13496;DHT22;6820;49.374;8.452;2023-11-19T18:59:26;13.55;99.99
13496;DHT22;6820;49.374;8.452;2023-11-19T19:03:28;13.55;99.99
13496;DHT22;6820;49.374;8.452;2023-11-19T19:07:32;13.54;99.99
13496;DHT22;6820;49.374;8.452;2023-11-19T19:11:34;13.48;99.99
13496;DHT22;6820;49.374;8.452;2023-11-19T19:15:36;13.46;99.99
13496;DHT22;6820;49.374;8.452;2023-11-19T19:19:38;13.48;99.99
13496;DHT22;6820;49.374;8.452;2023-11-19T19:23:40;13.47;99.99
13496;DHT22;6820;49.374;8.452;2023-11-19T19:27:42;13.44;99.99
13496;DHT22;6820;49.374;8.452;2023-11-19T19:31:48;13.41;99.99
13496;DHT22;6820;49.374;8.452;2023-11-19T19:35:53;13.39;99.99
13496;DHT22;6820;49.374;8.452;2023-11-19T19:39:55;13.36;99.99
13496;DHT22;6820;49.374;8.452;2023-11-19T19:43:56;13.38;99.99
13496;DHT22;6820;49.374;8.452;2023-11-19T19:47:58;13.32;99.99
13496;DHT22;6820;49.374;8.452;2023-11-19T19:52:00;13.36;99.99
13496;DHT22;6820;49.374;8.452;2023-11-19T19:56:01;13.38;99.99
13496;DHT22;6820;49.374;8.452;2023-11-19T20:00:03;13.35;99.99
13496;DHT22;6820;49.374;8.452;2023-11-19T20:04:16;13.35;99.99
13496;DHT22;6820;49.374;8.452;2023-11-19T20:08:18;13.35;99.99
13496;DHT22;6820;49.374;8.452;2023-11-19T20:12:20;13.29;99.99
13496;DHT22;6820;49.374;8.452;2023-11-19T20:16:22;13.32;99.99
13496;DHT22;6820;49.374;8.452;2023-11-19T20:20:23;13.31;99.99
13496;DHT22;6820;49.374;8.452;2023-11-19T20:24:26;13.29;99.99
13496;DHT22;6820;49.374;8.452;2023-11-19T20:28:28;13.29;99.99
13496;DHT22;6820;49.374;8.452;2023-11-19T20:32:30;13.28;99.99
13496;DHT22;6820;49.374;8.452;2023-11-19T20:36:32;13.27;99.99
13496;DHT22;6820;49.374;8.452;2023-11-19T20:40:33;13.24;99.99
13496;DHT22;6820;49.374;8.452;2023-11-19T20:44:35;13.25;99.99
13496;DHT22;6820;49.374;8.452;2023-11-19T20:48:37;13.25;99.99
13496;DHT22;6820;49.374;8.452;2023-11-19T20:52:39;13.29;99.99
13496;DHT22;6820;49.374;8.452;2023-11-19T20:56:41;13.29;99.99
13496;DHT22;6820;49.374;8.452;2023-11-19T21:00:43;13.32;99.99
13496;DHT22;6820;49.374;8.452;2023-11-19T21:04:45;13.32;99.99
13496;DHT22;6820;49.374;8.452;2023-11-19T21:08:46;13.35;99.99
13496;DHT22;6820;49.374;8.452;2023-11-19T21:12:48;13.32;99.99
13496;DHT22;6820;49.374;8.452;2023-11-19T21:16:51;13.32;99.99
13496;DHT22;6820;49.374;8.452;2023-11-19T21:20:53;13.31;99.99
13496;DHT22;6820;49.374;8.452;2023-11-19T21:24:54;13.32;99.99
13496;DHT22;6820;49.374;8.452;2023-11-19T21:28:57;13.32;99.99
13496;DHT22;6820;49.374;8.452;2023-11-19T21:32:59;13.35;99.99
13496;DHT22;6820;49.374;8.452;2023-11-19T21:37:00;13.32;99.99
13496;DHT22;6820;49.374;8.452;2023-11-19T21:41:02;13.32;99.99
13496;DHT22;6820;49.374;8.452;2023-11-19T21:45:06;13.32;99.99
13496;DHT22;6820;49.374;8.452;2023-11-19T21:49:09;13.31;99.99
13496;DHT22;6820;49.374;8.452;2023-11-19T21:53:12;13.28;99.99
13496;DHT22;6820;49.374;8.452;2023-11-19T21:57:14;13.28;99.99
13496;DHT22;6820;49.374;8.452;2023-11-19T22:01:16;13.28;99.99
13496;DHT22;6820;49.374;8.452;2023-11-19T22:05:18;13.28;99.99
13496;DHT22;6820;49.374;8.452;2023-11-19T22:09:23;13.28;99.99
13496;DHT22;6820;49.374;8.452;2023-11-19T22:13:25;13.27;99.99
13496;DHT22;6820;49.374;8.452;2023-11-19T22:17:26;13.25;99.99
13496;DHT22;6820;49.374;8.452;2023-11-19T22:21:28;13.24;99.99
13496;DHT22;6820;49.374;8.452;2023-11-19T22:25:30;13.24;99.99
13496;DHT22;6820;49.374;8.452;2023-11-19T22:29:32;13.25;99.99
13496;DHT22;6820;49.374;8.452;2023-11-19T22:33:34;13.24;99.99
13496;DHT22;6820;49.374;8.452;2023-11-19T22:37:36;13.24;99.99
13496;DHT22;6820;49.374;8.452;2023-11-19T22:41:38;13.21;99.99
13496;DHT22;6820;49.374;8.452;2023-11-19T22:45:41;13.19;99.99
13496;DHT22;6820;49.374;8.452;2023-11-19T22:49:43;13.17;99.99
13496;DHT22;6820;49.374;8.452;2023-11-19T22:53:45;13.13;99.99
13496;DHT22;6820;49.374;8.452;2023-11-19T22:57:46;13.10;99.99
13496;DHT22;6820;49.374;8.452;2023-11-19T23:01:51;13.09;99.99
13496;DHT22;6820;49.374;8.452;2023-11-19T23:05:53;13.06;99.99
13496;DHT22;6820;49.374;8.452;2023-11-19T23:09:55;13.04;99.99
13496;DHT22;6820;49.374;8.452;2023-11-19T23:13:59;13.03;99.99
13496;DHT22;6820;49.374;8.452;2023-11-19T23:18:01;12.99;99.99
13496;DHT22;6820;49.374;8.452;2023-11-19T23:22:03;12.96;99.99
13496;DHT22;6820;49.374;8.452;2023-11-19T23:26:07;12.92;99.99
13496;DHT22;6820;49.374;8.452;2023-11-19T23:30:09;12.89;99.99
13496;DHT22;6820;49.374;8.452;2023-11-19T23:34:11;12.88;99.99
13496;DHT22;6820;49.374;8.452;2023-11-19T23:38:13;12.88;99.99
13496;DHT22;6820;49.374;8.452;2023-11-19T23:42:14;12.87;99.99
13496;DHT22;6820;49.374;8.452;2023-11-19T23:46:19;12.87;99.99
13496;DHT22;6820;49.374;8.452;2023-11-19T23:50:21;12.85;99.99
13496;DHT22;6820;49.374;8.452;2023-11-19T23:54:23;12.87;99.99
13496;DHT22;6820;49.374;8.452;2023-11-19T23:58:25;12.85;99.99
